Time;durP1;ratioP1;P1;durP2;ratioP2;P2;SDS_P1;SDS_P2;PMS_P1;PMS_P2;Temp;Humidity;BMP_temperature;BMP_pressure;BME280_temperature;BME280_humidity;BME280_pressure;Samples;Min_cycle;Max_cycle;Signal;HPM_P1;HPM_P2
2022/04/17 00:00:50;;;;;;;12.68;6.80;;;4.30;99.90;;;;;;4923626;28;20220;-63
2022/04/17 00:03:17;;;;;;;9.40;6.70;;;4.30;99.90;;;;;;4929345;28;20354;-63
2022/04/17 00:05:44;;;;;;;12.30;7.15;;;4.20;99.90;;;;;;4928289;28;20061;-63
2022/04/17 00:08:11;;;;;;;13.20;7.20;;;4.20;99.90;;;;;;4928782;28;20153;-63
2022/04/17 00:10:38;;;;;;;7.55;6.43;;;4.20;99.90;;;;;;4930601;28;20056;-63
2022/04/17 00:13:05;;;;;;;9.18;7.07;;;4.10;99.90;;;;;;4923295;28;20115;-63
2022/04/17 00:15:32;;;;;;;10.70;6.72;;;4.10;99.90;;;;;;4927132;28;20603;-63
2022/04/17 00:17:59;;;;;;;;;;;4.00;99.90;;;;;;4923948;28;20050;-63
2022/04/17 00:20:26;;;;;;;10.25;7.07;;;4.00;99.90;;;;;;4907517;28;19926;-63
2022/04/17 00:22:53;;;;;;;6.95;6.25;;;4.00;99.90;;;;;;4908044;28;20039;-63
2022/04/17 00:25:20;;;;;;;11.40;6.95;;;4.00;99.90;;;;;;4913180;28;20057;-63
2022/04/17 00:27:47;;;;;;;8.23;6.97;;;3.90;99.90;;;;;;4910145;28;20549;-63
2022/04/17 00:30:15;;;;;;;10.85;6.82;;;4.00;99.90;;;;;;4903297;28;20078;-66
2022/04/17 00:32:42;;;;;;;11.95;7.45;;;3.90;99.90;;;;;;4908135;28;20121;-63
2022/04/17 00:35:10;;;;;;;8.35;6.82;;;3.80;99.90;;;;;;4905455;28;20658;-63
2022/04/17 00:37:37;;;;;;;9.38;7.50;;;3.80;99.90;;;;;;4912562;28;20139;-63
2022/04/17 00:40:06;;;;;;;11.45;6.90;;;3.70;99.90;;;;;;4921660;28;20039;-63
2022/04/17 00:42:33;;;;;;;8.23;6.93;;;3.70;99.90;;;;;;4910960;28;20042;-63
2022/04/17 00:45:00;;;;;;;10.57;7.38;;;3.70;99.90;;;;;;4906923;28;20696;-63
2022/04/17 00:47:29;;;;;;;7.60;6.20;;;3.70;99.90;;;;;;4928692;28;20338;-63
2022/04/17 00:49:56;;;;;;;9.40;7.22;;;3.60;99.90;;;;;;4932634;28;20438;-62
2022/04/17 00:52:23;;;;;;;11.23;7.25;;;3.60;99.90;;;;;;4927979;28;20149;-63
2022/04/17 00:54:53;;;;;;;9.75;6.75;;;3.50;99.90;;;;;;4931958;28;20137;-63
2022/04/17 00:57:22;;;;;;;11.68;8.35;;;3.50;99.90;;;;;;4929023;28;20062;-62
2022/04/17 00:59:50;;;;;;;10.57;7.47;;;3.30;99.90;;;;;;4931001;28;20583;-63
2022/04/17 01:02:17;;;;;;;9.50;7.30;;;3.20;99.90;;;;;;4929910;28;20842;-63
2022/04/17 01:04:45;;;;;;;10.52;7.28;;;3.20;99.90;;;;;;4931166;28;20042;-63
2022/04/17 01:07:14;;;;;;;17.25;7.88;;;3.10;99.90;;;;;;4929985;28;20100;-63
2022/04/17 01:09:44;;;;;;;12.45;7.43;;;3.00;99.90;;;;;;4929537;28;20054;-63
2022/04/17 01:12:13;;;;;;;10.38;8.40;;;2.90;99.90;;;;;;4926045;28;20349;-63
2022/04/17 01:14:41;;;;;;;10.52;8.02;;;2.90;99.90;;;;;;4924993;28;20120;-63
2022/04/17 01:17:09;;;;;;;8.48;6.80;;;2.80;99.90;;;;;;4927605;28;20556;-63
2022/04/17 01:19:39;;;;;;;9.30;7.25;;;2.70;99.90;;;;;;4923257;28;20057;-63
2022/04/17 01:22:11;;;;;;;10.63;6.72;;;2.70;99.90;;;;;;4938572;28;20203;-62
2022/04/17 01:27:25;;;;;;;11.13;7.75;;;2.60;99.90;;;;;;4950836;28;20678;-61
2022/04/17 01:29:53;;;;;;;14.07;7.95;;;2.50;99.90;;;;;;4950590;28;20564;-62
2022/04/17 01:32:21;;;;;;;11.80;7.43;;;2.50;99.90;;;;;;4948251;28;20163;-62
2022/04/17 01:34:49;;;;;;;10.02;7.80;;;2.40;99.90;;;;;;4950639;28;20097;-63
2022/04/17 01:37:17;;;;;;;12.85;7.00;;;2.40;99.90;;;;;;4949822;28;20121;-63
2022/04/17 01:39:45;;;;;;;10.85;7.53;;;2.30;99.90;;;;;;4937486;28;20541;-63
2022/04/17 01:42:13;;;;;;;11.85;8.48;;;2.30;99.90;;;;;;4928910;28;20038;-63
2022/04/17 01:44:40;;;;;;;12.30;9.27;;;2.20;99.90;;;;;;4932024;28;20070;-63
2022/04/17 01:47:07;;;;;;;12.35;7.57;;;2.10;99.90;;;;;;4932799;28;20355;-63
2022/04/17 01:49:35;;;;;;;12.18;9.10;;;2.10;99.90;;;;;;4931006;28;20575;-63
2022/04/17 01:52:02;;;;;;;17.33;8.50;;;2.00;99.90;;;;;;4933058;28;20540;-63
2022/04/17 01:54:29;;;;;;;13.55;8.80;;;1.90;99.90;;;;;;4934407;28;20124;-63
2022/04/17 01:56:56;;;;;;;11.35;8.90;;;1.90;99.90;;;;;;4934274;28;20043;-63
2022/04/17 01:59:24;;;;;;;9.27;8.02;;;1.80;99.90;;;;;;4933896;28;20394;-63
2022/04/17 02:01:51;;;;;;;13.15;9.75;;;1.80;99.90;;;;;;4933201;28;20200;-63
2022/04/17 02:04:19;;;;;;;14.18;9.57;;;1.80;99.90;;;;;;4932496;28;20524;-63
2022/04/17 02:06:50;;;;;;;14.82;11.10;;;1.70;99.90;;;;;;4932451;28;20117;-62
2022/04/17 02:09:18;;;;;;;12.52;9.90;;;1.70;99.90;;;;;;4931655;28;20106;-62
2022/04/17 02:11:45;;;;;;;13.32;9.32;;;1.60;99.90;;;;;;4927006;28;20571;-62
2022/04/17 02:14:12;;;;;;;17.58;9.52;;;1.60;99.90;;;;;;4930212;28;20480;-62
2022/04/17 02:16:40;;;;;;;19.38;10.25;;;1.60;99.90;;;;;;4929587;28;20050;-61
2022/04/17 02:19:08;;;;;;;13.77;9.35;;;1.60;99.90;;;;;;4932336;28;20054;-61
2022/04/17 02:21:35;;;;;;;12.55;9.25;;;1.50;99.90;;;;;;4932013;28;20042;-64
2022/04/17 02:24:02;;;;;;;14.45;10.18;;;1.50;99.90;;;;;;4926893;28;20419;-62
2022/04/17 02:26:30;;;;;;;13.20;9.43;;;1.50;99.90;;;;;;4933469;28;20053;-62
2022/04/17 02:28:58;;;;;;;15.70;10.90;;;1.50;99.90;;;;;;4928154;28;20232;-62
2022/04/17 02:31:26;;;;;;;18.23;10.57;;;1.50;99.90;;;;;;4934994;28;20113;-62
2022/04/17 02:33:53;;;;;;;15.35;10.38;;;1.40;99.90;;;;;;4932471;28;20042;-62
2022/04/17 02:36:21;;;;;;;12.52;9.57;;;1.40;99.90;;;;;;4931607;28;20058;-63
2022/04/17 02:38:48;;;;;;;15.07;10.43;;;1.50;99.90;;;;;;4934596;28;20272;-62
2022/04/17 02:41:16;;;;;;;14.60;9.82;;;1.40;99.90;;;;;;4929463;28;20142;-62
2022/04/17 02:43:43;;;;;;;13.43;9.20;;;1.40;99.90;;;;;;4926359;28;20050;-62
2022/04/17 02:46:10;;;;;;;12.15;9.88;;;1.40;99.90;;;;;;4927976;28;20050;-62
2022/04/17 02:48:37;;;;;;;15.82;11.07;;;1.40;99.90;;;;;;4927686;28;20193;-62
2022/04/17 02:51:04;;;;;;;18.83;12.20;;;1.40;99.90;;;;;;4931654;28;20365;-61
2022/04/17 02:53:32;;;;;;;;;;;1.40;99.90;;;;;;4933397;28;20073;-65
2022/04/17 02:56:00;;;;;;;14.32;10.15;;;1.30;99.90;;;;;;4930792;28;20181;-61
2022/04/17 02:58:28;;;;;;;12.70;9.40;;;1.30;99.90;;;;;;4930551;28;20782;-62
2022/04/17 03:06:27;;;;;;;16.67;10.68;;;1.20;99.90;;;;;;4932134;28;20315;-63
2022/04/17 03:08:54;;;;;;;14.93;10.55;;;1.20;99.90;;;;;;4933250;28;20591;-62
2022/04/17 03:11:21;;;;;;;17.83;10.40;;;1.10;99.90;;;;;;4935756;28;20298;-62
2022/04/17 03:13:48;;;;;;;17.42;11.85;;;1.10;99.90;;;;;;4928680;28;20196;-62
2022/04/17 03:16:16;;;;;;;16.38;11.48;;;1.10;99.90;;;;;;4929142;28;20380;-62
2022/04/17 03:18:43;;;;;;;17.17;11.52;;;1.10;99.90;;;;;;4930017;28;20065;-62
2022/04/17 03:21:11;;;;;;;17.15;12.48;;;1.10;99.90;;;;;;4927723;28;20741;-62
2022/04/17 03:23:38;;;;;;;17.30;12.23;;;1.00;99.90;;;;;;4930090;28;20121;-62
2022/04/17 03:26:05;;;;;;;19.40;12.45;;;1.00;99.90;;;;;;4932826;28;20198;-62
2022/04/17 03:28:32;;;;;;;16.80;11.38;;;0.90;99.90;;;;;;4929157;28;20042;-62
2022/04/17 03:31:00;;;;;;;16.65;10.98;;;1.00;99.90;;;;;;4930809;28;20130;-62
2022/04/17 03:33:28;;;;;;;17.58;12.82;;;1.00;99.90;;;;;;4930965;28;20104;-62
2022/04/17 03:35:56;;;;;;;15.45;11.18;;;0.90;99.90;;;;;;4931922;28;20045;-62
2022/04/17 03:38:24;;;;;;;13.10;10.13;;;0.90;99.90;;;;;;4928825;28;20053;-62
2022/04/17 03:40:51;;;;;;;18.33;12.45;;;0.90;99.90;;;;;;4931967;28;20068;-62
2022/04/17 03:43:18;;;;;;;17.00;10.85;;;0.80;99.90;;;;;;4927366;28;20389;-62
2022/04/17 03:45:47;;;;;;;13.73;10.02;;;0.80;99.90;;;;;;4929432;28;20034;-62
2022/04/17 03:48:17;;;;;;;16.90;11.23;;;0.80;99.90;;;;;;4924670;28;21022;-62
2022/04/17 03:50:47;;;;;;;18.25;11.82;;;0.80;99.90;;;;;;4929042;28;20141;-62
2022/04/17 03:53:14;;;;;;;14.27;10.32;;;0.80;99.90;;;;;;4925763;28;20125;-62
2022/04/17 03:55:42;;;;;;;13.85;10.45;;;0.80;99.90;;;;;;4931400;28;20049;-62
2022/04/17 03:58:09;;;;;;;17.60;11.13;;;0.70;99.90;;;;;;4932062;28;20080;-62
2022/04/17 04:00:35;;;;;;;14.77;10.35;;;0.70;99.90;;;;;;4931556;28;20061;-62
2022/04/17 04:03:03;;;;;;;17.40;11.05;;;0.70;99.90;;;;;;4933491;28;20263;-62
2022/04/17 04:05:33;;;;;;;15.13;10.88;;;0.70;99.90;;;;;;4931942;28;20334;-62
2022/04/17 04:08:02;;;;;;;15.65;11.65;;;0.70;99.90;;;;;;4934424;28;20822;-62
2022/04/17 04:10:29;;;;;;;17.35;10.93;;;0.60;99.90;;;;;;4932115;28;20069;-62
2022/04/17 04:12:56;;;;;;;15.45;10.35;;;0.60;99.90;;;;;;4928512;28;20042;-62
2022/04/17 04:15:24;;;;;;;15.60;11.68;;;0.50;99.90;;;;;;4906967;28;20370;-63
2022/04/17 04:17:51;;;;;;;18.17;11.70;;;0.50;99.90;;;;;;4927211;28;20038;-63
2022/04/17 04:20:18;;;;;;;14.27;10.90;;;0.50;99.90;;;;;;4929718;28;20391;-62
2022/04/17 04:22:45;;;;;;;14.20;10.57;;;0.50;99.90;;;;;;4929198;28;20717;-63
2022/04/17 04:25:12;;;;;;;16.25;11.80;;;0.50;99.90;;;;;;4933236;28;20038;-62
2022/04/17 04:30:24;;;;;;;16.75;12.30;;;0.40;99.90;;;;;;4928957;28;20224;-62
2022/04/17 04:32:56;;;;;;;15.20;11.05;;;0.40;99.90;;;;;;4932221;28;20359;-62
2022/04/17 04:35:26;;;;;;;17.98;12.40;;;0.40;99.90;;;;;;4929207;28;20038;-62
2022/04/17 04:37:54;;;;;;;15.23;11.38;;;0.40;99.90;;;;;;4927606;28;20114;-62
2022/04/17 04:40:21;;;;;;;16.50;10.95;;;0.40;99.90;;;;;;4927234;28;20038;-62
2022/04/17 04:42:55;;;;;;;14.70;11.13;;;0.40;99.90;;;;;;4921084;28;20046;-62
2022/04/17 04:48:08;;;;;;;16.50;11.23;;;0.40;99.90;;;;;;4930987;28;20046;-62
2022/04/17 04:50:35;;;;;;;15.88;11.30;;;0.40;99.90;;;;;;4930029;28;20039;-62
2022/04/17 04:53:03;;;;;;;17.75;11.00;;;0.40;99.90;;;;;;4930422;28;20552;-63
2022/04/17 04:55:29;;;;;;;15.23;11.57;;;0.40;99.90;;;;;;4932984;28;20066;-62
2022/04/17 04:57:57;;;;;;;16.58;11.70;;;0.50;99.90;;;;;;4930688;28;20065;-61
2022/04/17 05:00:24;;;;;;;17.10;11.90;;;0.50;99.90;;;;;;4931341;28;20171;-62
2022/04/17 05:02:51;;;;;;;17.98;11.85;;;0.50;99.90;;;;;;4927145;28;20152;-62
2022/04/17 05:05:18;;;;;;;16.25;11.60;;;0.50;99.90;;;;;;4910664;28;20043;-62
2022/04/17 05:07:45;;;;;;;23.02;12.88;;;0.50;99.90;;;;;;4927430;28;20069;-62
2022/04/17 05:10:11;;;;;;;16.02;11.82;;;0.60;99.90;;;;;;4928271;28;20201;-62
2022/04/17 05:12:38;;;;;;;14.02;10.90;;;0.60;99.90;;;;;;4932301;28;20197;-62
2022/04/17 05:15:06;;;;;;;16.55;10.38;;;0.60;99.90;;;;;;4921846;28;20608;-62
2022/04/17 05:17:33;;;;;;;14.75;10.63;;;0.60;99.90;;;;;;4928453;28;20235;-62
2022/04/17 05:20:00;;;;;;;17.05;12.38;;;0.60;99.90;;;;;;4931032;28;20560;-62
2022/04/17 05:22:31;;;;;;;17.30;12.27;;;0.70;99.90;;;;;;4932929;28;20339;-63
2022/04/17 05:24:59;;;;;;;17.25;11.23;;;0.70;99.90;;;;;;4929914;28;20213;-62
2022/04/17 05:27:27;;;;;;;16.65;11.45;;;0.80;99.90;;;;;;4927327;28;20458;-63
2022/04/17 05:29:55;;;;;;;15.48;11.23;;;0.80;99.90;;;;;;4931117;28;20778;-62
2022/04/17 05:32:22;;;;;;;17.05;11.70;;;0.90;99.90;;;;;;4929626;28;20607;-63
2022/04/17 05:34:49;;;;;;;;;;;1.00;99.90;;;;;;4932496;28;20038;-62
2022/04/17 05:37:16;;;;;;;20.90;12.98;;;1.00;99.90;;;;;;4913297;28;20044;-62
2022/04/17 05:39:43;;;;;;;17.52;11.82;;;1.10;99.90;;;;;;4936716;28;20042;-62
2022/04/17 05:42:11;;;;;;;17.60;11.98;;;1.10;99.90;;;;;;4930429;28;20878;-62
2022/04/17 05:44:44;;;;;;;18.20;12.60;;;1.20;99.90;;;;;;4928198;28;20042;-62
2022/04/17 05:47:13;;;;;;;19.27;12.90;;;1.20;99.90;;;;;;4928761;28;20053;-62
2022/04/17 05:49:40;;;;;;;18.73;12.98;;;1.20;99.90;;;;;;4928580;28;20237;-62
2022/04/17 05:52:08;;;;;;;19.55;13.55;;;1.30;99.90;;;;;;4916841;28;20121;-62
2022/04/17 05:54:35;;;;;;;18.90;12.50;;;1.30;99.90;;;;;;4930727;28;20955;-62
2022/04/17 05:57:02;;;;;;;19.73;12.88;;;1.40;99.90;;;;;;4932100;28;20323;-63
2022/04/17 05:59:30;;;;;;;19.90;12.10;;;1.60;99.90;;;;;;4934941;28;20061;-62
2022/04/17 06:01:57;;;;;;;17.55;12.13;;;1.60;99.90;;;;;;4933886;28;20311;-62
2022/04/17 06:04:25;;;;;;;25.25;13.07;;;1.70;99.90;;;;;;4931452;28;20046;-62
2022/04/17 06:06:52;;;;;;;19.73;13.27;;;1.70;99.90;;;;;;4917762;28;20038;-62
2022/04/17 06:09:18;;;;;;;16.90;12.02;;;1.80;99.90;;;;;;4933478;28;20046;-62
2022/04/17 06:11:46;;;;;;;20.52;13.48;;;1.90;99.90;;;;;;4933856;28;20145;-62
2022/04/17 06:14:13;;;;;;;17.60;12.57;;;2.00;99.90;;;;;;4931315;28;20153;-62
2022/04/17 06:16:40;;;;;;;17.15;11.95;;;2.20;99.90;;;;;;4926469;28;20801;-57
2022/04/17 06:19:09;;;;;;;16.70;10.80;;;2.30;99.90;;;;;;4928931;28;20073;-58
2022/04/17 06:21:39;;;;;;;15.85;10.75;;;2.40;99.90;;;;;;4931306;28;20153;-59
2022/04/17 06:24:06;;;;;;;12.57;8.55;;;2.60;99.90;;;;;;4930036;28;20574;-58
2022/04/17 06:26:33;;;;;;;12.07;8.82;;;2.70;99.90;;;;;;4931184;28;20235;-58
2022/04/17 06:29:05;;;;;;;13.73;9.93;;;2.80;99.90;;;;;;4929911;28;20054;-59
2022/04/17 06:31:33;;;;;;;14.57;9.43;;;2.90;99.90;;;;;;4930681;28;20707;-59
2022/04/17 06:34:01;;;;;;;13.27;8.93;;;3.00;99.90;;;;;;4933011;28;20878;-59
2022/04/17 06:36:28;;;;;;;11.15;8.18;;;3.20;99.90;;;;;;4933126;28;20042;-59
2022/04/17 06:38:55;;;;;;;15.18;8.55;;;3.30;99.90;;;;;;4931435;28;20129;-58
2022/04/17 06:41:22;;;;;;;12.50;8.68;;;3.40;99.90;;;;;;4929940;28;20790;-59
2022/04/17 06:43:50;;;;;;;16.85;9.18;;;3.40;99.90;;;;;;4934022;28;20391;-60
2022/04/17 06:46:18;;;;;;;10.90;8.48;;;3.50;99.90;;;;;;4908907;28;20040;-61
2022/04/17 06:48:45;;;;;;;12.73;9.40;;;3.50;99.90;;;;;;4928273;28;20340;-59
2022/04/17 06:51:13;;;;;;;14.65;9.60;;;3.60;99.90;;;;;;4932383;28;20069;-60
2022/04/17 06:53:41;;;;;;;12.60;8.85;;;3.70;99.90;;;;;;4925837;28;20280;-59
2022/04/17 06:56:12;;;;;;;13.27;8.85;;;3.80;99.90;;;;;;4932464;28;20201;-59
2022/04/17 06:58:39;;;;;;;14.10;9.57;;;4.00;99.90;;;;;;4928145;28;20057;-59
2022/04/17 07:01:06;;;;;;;14.02;9.70;;;4.00;99.90;;;;;;4933222;28;20035;-59
2022/04/17 07:03:33;;;;;;;10.43;7.70;;;4.10;99.90;;;;;;4930012;28;20064;-61
2022/04/17 07:06:00;;;;;;;11.43;8.82;;;4.10;99.90;;;;;;4932951;28;20859;-58
2022/04/17 07:08:28;;;;;;;13.55;8.93;;;4.10;99.90;;;;;;4931602;28;20046;-59
2022/04/17 07:10:55;;;;;;;11.93;8.13;;;4.20;99.90;;;;;;4932212;28;20038;-59
2022/04/17 07:13:23;;;;;;;11.52;8.40;;;4.30;99.90;;;;;;4945697;28;20578;-61
2022/04/17 07:15:51;;;;;;;12.10;8.38;;;4.40;99.90;;;;;;4938014;28;20038;-59
2022/04/17 07:18:18;;;;;;;19.17;8.85;;;4.40;99.90;;;;;;4945632;28;20287;-59
2022/04/17 07:20:45;;;;;;;10.73;8.52;;;4.50;99.90;;;;;;4946762;28;20112;-60
2022/04/17 07:23:12;;;;;;;11.02;8.20;;;4.60;99.90;;;;;;4944936;28;20291;-59
2022/04/17 07:25:40;;;;;;;8.77;7.53;;;4.70;99.90;;;;;;4947396;28;20962;-61
2022/04/17 07:28:14;;;;;;;14.40;8.40;;;4.80;99.90;;;;;;4945528;28;20042;-60
2022/04/17 07:30:43;;;;;;;10.73;7.07;;;5.00;99.90;;;;;;4951816;28;20487;-60
2022/04/17 07:33:10;;;;;;;9.85;7.85;;;5.20;99.90;;;;;;4948626;28;20082;-61
2022/04/17 07:35:37;;;;;;;12.50;8.27;;;5.40;99.90;;;;;;4951205;28;20547;-60
2022/04/17 07:38:05;;;;;;;8.73;7.00;;;5.60;99.90;;;;;;4944551;28;20305;-60
2022/04/17 07:40:34;;;;;;;12.32;8.32;;;5.70;99.90;;;;;;4942250;28;20402;-61
2022/04/17 07:43:03;;;;;;;19.10;8.23;;;6.00;99.90;;;;;;4930522;28;20042;-56
2022/04/17 07:45:32;;;;;;;10.13;7.63;;;6.30;99.90;;;;;;4926710;28;20038;-57
2022/04/17 07:47:59;;;;;;;11.63;8.27;;;6.90;99.90;;;;;;4935431;28;20045;-58
2022/04/17 07:50:29;;;;;;;14.45;8.27;;;7.60;99.90;;;;;;4935345;28;20505;-55
2022/04/17 07:52:57;;;;;;;12.77;8.25;;;8.40;99.90;;;;;;4936167;28;20580;-56
2022/04/17 07:55:24;;;;;;;16.98;8.32;;;8.90;99.90;;;;;;4935092;28;20101;-55
2022/04/17 08:00:46;;;;;;;10.70;7.35;;;9.80;99.90;;;;;;4936635;28;20303;-59
2022/04/17 08:03:21;;;;;;;10.68;7.05;;;10.20;99.90;;;;;;4949290;28;20060;-61
2022/04/17 08:05:50;;;;;;;9.75;7.43;;;10.60;99.10;;;;;;4937939;28;20049;-60
2022/04/17 08:08:17;;;;;;;12.70;7.57;;;10.90;96.00;;;;;;4953539;28;20057;-59
2022/04/17 08:10:46;;;;;;;12.80;6.85;;;11.30;93.80;;;;;;4957552;28;20038;-59
2022/04/17 08:13:13;;;;;;;11.23;6.63;;;11.60;91.50;;;;;;4951274;28;20041;-59
2022/04/17 08:15:40;;;;;;;9.98;6.85;;;11.90;90.50;;;;;;4948622;28;20038;-64
2022/04/17 08:18:07;;;;;;;10.23;7.00;;;12.20;87.60;;;;;;4931697;28;20748;-63
2022/04/17 08:20:34;;;;;;;9.05;6.72;;;12.30;83.50;;;;;;4933912;28;20061;-63
2022/04/17 08:23:01;;;;;;;9.98;7.03;;;12.20;84.50;;;;;;4932937;28;20827;-63
2022/04/17 08:25:29;;;;;;;15.90;7.80;;;12.20;81.40;;;;;;4936218;28;20042;-64
2022/04/17 08:27:56;;;;;;;13.05;7.47;;;12.30;82.00;;;;;;4934370;28;20100;-63
2022/04/17 08:30:30;;;;;;;8.85;7.20;;;12.30;81.00;;;;;;4931924;28;20129;-60
2022/04/17 08:32:58;;;;;;;11.63;7.53;;;12.40;78.60;;;;;;4934466;28;20862;-62
2022/04/17 08:35:25;;;;;;;10.38;6.97;;;12.50;80.10;;;;;;4930536;28;20231;-58
2022/04/17 08:37:54;;;;;;;12.10;6.88;;;12.50;77.90;;;;;;4935208;28;20106;-59
2022/04/17 08:40:22;;;;;;;8.52;6.43;;;12.50;78.70;;;;;;4933328;28;20042;-60
2022/04/17 08:42:50;;;;;;;14.75;7.28;;;12.50;76.70;;;;;;4931810;28;20094;-58
2022/04/17 08:45:18;;;;;;;8.27;6.60;;;12.40;78.20;;;;;;4934579;28;20560;-59
2022/04/17 08:47:45;;;;;;;8.40;6.57;;;12.30;75.00;;;;;;4931697;28;20438;-64
2022/04/17 08:50:16;;;;;;;9.20;6.95;;;12.30;75.80;;;;;;4951143;28;20782;-62
2022/04/17 08:52:49;;;;;;;7.82;6.25;;;12.30;77.30;;;;;;4935270;28;20744;-60
2022/04/17 08:55:16;;;;;;;8.68;6.80;;;12.40;76.00;;;;;;4936150;28;20153;-59
2022/04/17 08:57:44;;;;;;;8.90;6.32;;;12.60;76.20;;;;;;4936850;28;20391;-58
2022/04/17 09:00:14;;;;;;;9.00;6.88;;;12.60;74.60;;;;;;4936010;28;20110;-59
2022/04/17 09:02:42;;;;;;;8.93;7.10;;;12.60;73.30;;;;;;4933973;28;20567;-59
2022/04/17 09:05:11;;;;;;;8.95;6.05;;;12.60;71.50;;;;;;4936474;28;20462;-59
2022/04/17 09:07:40;;;;;;;8.93;6.22;;;12.60;72.10;;;;;;4935420;28;20109;-58
2022/04/17 09:10:08;;;;;;;8.48;5.93;;;12.80;68.00;;;;;;4947422;28;20042;-59
2022/04/17 09:12:35;;;;;;;9.02;6.15;;;12.90;69.10;;;;;;4952894;28;20192;-63
2022/04/17 09:15:03;;;;;;;8.70;5.68;;;13.00;68.10;;;;;;4936765;28;20439;-62
2022/04/17 09:17:34;;;;;;;11.75;6.13;;;13.10;67.90;;;;;;4931663;28;20053;-63
2022/04/17 09:20:03;;;;;;;6.85;5.32;;;13.30;68.40;;;;;;4933966;28;20579;-62
2022/04/17 09:22:53;;;;;;;7.72;5.60;;;13.20;60.80;;;;;;4935872;28;20561;-56
2022/04/17 09:25:24;;;;;;;8.20;6.15;;;13.20;62.40;;;;;;4937928;28;20049;-56
2022/04/17 09:27:54;;;;;;;8.27;6.13;;;13.30;61.60;;;;;;4930691;28;20812;-56
2022/04/17 09:30:38;;;;;;;7.20;5.90;;;13.40;61.10;;;;;;4937411;28;20054;-58
2022/04/17 09:33:07;;;;;;;6.75;5.43;;;13.50;61.10;;;;;;4934681;28;20038;-57
2022/04/17 09:35:34;;;;;;;8.68;5.40;;;13.60;61.10;;;;;;4934564;28;20050;-56
2022/04/17 09:38:09;;;;;;;9.80;5.57;;;13.70;60.60;;;;;;4934214;28;20341;-56
2022/04/17 09:40:37;;;;;;;6.40;5.05;;;13.80;62.70;;;;;;4936560;28;20131;-54
2022/04/17 09:43:15;;;;;;;6.93;5.35;;;13.90;59.20;;;;;;4951678;28;20357;-57
2022/04/17 09:45:55;;;;;;;6.53;4.93;;;13.90;58.00;;;;;;4940734;28;20113;-56
2022/04/17 09:48:22;;;;;;;8.38;4.85;;;13.90;59.50;;;;;;4934553;28;20083;-56
2022/04/17 09:50:49;;;;;;;9.45;4.95;;;13.80;58.60;;;;;;4944120;28;20057;-57
2022/04/17 09:54:09;;;;;;;6.00;5.30;;;13.80;56.40;;;;;;4955823;28;20053;-56
2022/04/17 09:56:40;;;;;;;8.07;4.78;;;13.70;56.00;;;;;;4971300;28;20050;-55
2022/04/17 09:59:24;;;;;;;5.38;4.38;;;13.70;56.80;;;;;;4972209;28;20049;-54
2022/04/17 10:01:56;;;;;;;4.25;3.85;;;13.90;54.00;;;;;;4956739;28;20053;-56
2022/04/17 10:04:25;;;;;;;9.10;4.47;;;14.10;52.10;;;;;;4958263;28;20045;-56
2022/04/17 10:07:01;;;;;;;6.25;4.03;;;14.20;52.60;;;;;;4955449;28;20618;-55
2022/04/17 10:09:28;;;;;;;4.72;4.10;;;14.30;53.80;;;;;;4955575;28;20661;-56
2022/04/17 10:11:59;;;;;;;7.65;3.80;;;14.50;51.00;;;;;;4972349;28;20034;-56
2022/04/17 10:14:28;;;;;;;5.72;4.32;;;14.60;53.00;;;;;;4972472;28;20061;-55
2022/04/17 10:16:57;;;;;;;8.30;4.95;;;14.60;49.90;;;;;;4941005;28;20602;-56
2022/04/17 10:19:25;;;;;;;6.25;3.47;;;14.70;50.20;;;;;;4938409;28;20172;-57
2022/04/17 10:21:53;;;;;;;6.78;3.72;;;14.80;53.00;;;;;;4940611;28;20042;-56
2022/04/17 10:24:21;;;;;;;6.65;3.70;;;15.00;51.50;;;;;;4936880;28;20050;-56
2022/04/17 10:26:51;;;;;;;4.78;3.25;;;15.10;52.20;;;;;;4940245;28;20046;-56
2022/04/17 10:29:26;;;;;;;3.50;3.20;;;15.10;52.60;;;;;;4936961;28;20042;-55
2022/04/17 10:32:11;;;;;;;5.13;3.00;;;15.20;51.40;;;;;;4938346;28;20304;-56
2022/04/17 10:34:53;;;;;;;5.05;3.33;;;15.20;53.90;;;;;;4938047;28;20050;-56
2022/04/17 10:38:00;;;;;;;4.35;3.55;;;15.40;50.50;;;;;;4936185;28;20046;-56
2022/04/17 10:40:28;;;;;;;4.32;2.92;;;15.50;48.70;;;;;;4936011;28;20130;-56
2022/04/17 10:42:59;;;;;;;6.38;3.10;;;15.50;48.90;;;;;;4938100;28;20859;-56
2022/04/17 10:45:31;;;;;;;5.43;2.95;;;15.30;49.60;;;;;;4939392;28;20119;-60
2022/04/17 10:48:02;;;;;;;3.50;2.75;;;15.30;49.50;;;;;;4934619;28;20042;-60
2022/04/17 10:50:30;;;;;;;4.25;3.03;;;15.00;49.80;;;;;;4944037;28;20638;-59
2022/04/17 10:53:27;;;;;;;4.15;3.25;;;15.00;51.40;;;;;;4934006;28;20038;-59
2022/04/17 10:56:14;;;;;;;4.63;2.60;;;15.00;48.90;;;;;;4939285;28;20764;-60
2022/04/17 10:58:49;;;;;;;8.15;2.80;;;15.10;48.80;;;;;;4951920;28;20038;-61
2022/04/17 11:01:36;;;;;;;4.53;2.92;;;15.30;49.20;;;;;;4938470;28;20450;-61
2022/04/17 11:04:21;;;;;;;4.07;2.72;;;15.50;50.80;;;;;;4932842;28;20840;-64
2022/04/17 11:07:12;;;;;;;7.03;2.83;;;15.50;48.50;;;;;;4933162;28;20796;-63
2022/04/17 11:09:46;;;;;;;5.35;2.40;;;15.50;49.10;;;;;;4917886;28;20142;-63
2022/04/17 11:12:19;;;;;;;4.90;2.53;;;15.70;49.40;;;;;;4920945;28;20038;-64
2022/04/17 11:15:01;;;;;;;3.03;2.72;;;15.80;47.90;;;;;;4916156;28;20321;-64
2022/04/17 11:17:29;;;;;;;7.90;2.30;;;16.00;48.80;;;;;;4936996;28;20062;-64
2022/04/17 11:19:59;;;;;;;4.18;2.45;;;16.20;48.30;;;;;;4939093;28;20113;-63
2022/04/17 11:22:31;;;;;;;3.03;2.50;;;16.50;48.60;;;;;;4937129;28;20578;-64
2022/04/17 11:24:58;;;;;;;5.28;2.70;;;16.70;49.70;;;;;;4938840;28;20393;-62
2022/04/17 11:27:48;;;;;;;4.72;2.70;;;16.80;48.00;;;;;;4936883;28;20251;-63
2022/04/17 11:30:35;;;;;;;5.50;2.78;;;16.80;46.20;;;;;;4936060;28;20054;-64
2022/04/17 11:33:03;;;;;;;4.32;2.10;;;16.80;47.30;;;;;;4933343;28;20196;-63
2022/04/17 11:35:30;;;;;;;4.35;2.63;;;16.70;45.80;;;;;;4938304;28;20046;-64
2022/04/17 11:38:01;;;;;;;5.22;2.25;;;16.50;45.00;;;;;;4934076;28;20073;-64
2022/04/17 11:40:34;;;;;;;4.22;2.67;;;16.30;45.50;;;;;;4937883;28;20375;-64
2022/04/17 11:43:08;;;;;;;2.35;2.15;;;16.20;46.30;;;;;;4937541;28;20747;-63
2022/04/17 11:45:35;;;;;;;7.00;2.92;;;16.30;48.50;;;;;;4937768;28;20517;-64
2022/04/17 11:48:08;;;;;;;2.60;2.40;;;16.30;46.10;;;;;;4920962;28;20042;-64
2022/04/17 11:50:35;;;;;;;5.13;2.42;;;16.30;46.80;;;;;;4936596;28;20034;-63
2022/04/17 11:53:02;;;;;;;5.20;2.55;;;16.10;45.90;;;;;;4933453;28;20145;-61
2022/04/17 11:55:34;;;;;;;3.22;2.50;;;16.00;46.50;;;;;;4938354;28;20057;-60
2022/04/17 11:58:03;;;;;;;4.07;2.50;;;15.90;47.10;;;;;;4936652;28;20710;-60
2022/04/17 12:00:31;;;;;;;2.90;2.35;;;15.90;45.90;;;;;;4937215;28;20042;-59
2022/04/17 12:03:05;;;;;;;3.67;2.00;;;15.90;46.50;;;;;;4935163;28;20553;-59
2022/04/17 12:05:34;;;;;;;3.92;2.50;;;15.90;47.30;;;;;;4937523;28;20042;-60
2022/04/17 12:08:09;;;;;;;2.28;2.08;;;16.00;48.80;;;;;;4931407;28;20752;-60
2022/04/17 12:10:39;;;;;;;4.05;2.90;;;16.10;48.50;;;;;;4931925;28;20045;-60
2022/04/17 12:13:15;;;;;;;3.15;2.00;;;16.10;47.30;;;;;;4932460;28;20038;-60
2022/04/17 12:15:43;;;;;;;3.50;2.85;;;16.20;47.00;;;;;;4933448;28;20847;-59
2022/04/17 12:18:15;;;;;;;3.85;2.05;;;16.20;45.40;;;;;;4933618;28;20786;-60
2022/04/17 12:20:42;;;;;;;2.90;2.25;;;16.30;46.50;;;;;;4936214;28;20062;-61
2022/04/17 12:23:09;;;;;;;5.25;3.33;;;16.60;46.50;;;;;;4933676;28;20110;-60
2022/04/17 12:25:37;;;;;;;2.78;2.20;;;16.70;46.20;;;;;;4934458;28;20756;-61
2022/04/17 12:28:05;;;;;;;5.32;2.38;;;16.80;43.80;;;;;;4930528;28;20857;-60
2022/04/17 12:30:32;;;;;;;3.20;2.40;;;16.90;44.60;;;;;;4932251;28;20164;-60
2022/04/17 12:32:59;;;;;;;3.75;2.03;;;16.90;45.20;;;;;;4932702;28;20173;-61
2022/04/17 12:35:29;;;;;;;3.05;2.10;;;17.00;45.40;;;;;;4934959;28;20038;-61
2022/04/17 12:38:11;;;;;;;2.65;2.00;;;17.00;45.50;;;;;;4938367;28;20038;-64
2022/04/17 12:40:43;;;;;;;2.88;1.90;;;17.20;45.80;;;;;;4936279;28;20034;-64
2022/04/17 12:43:16;;;;;;;3.05;2.25;;;17.30;45.90;;;;;;4934606;28;20381;-65
2022/04/17 12:46:04;;;;;;;2.13;1.80;;;17.50;44.30;;;;;;4936863;28;20624;-64
2022/04/17 12:48:33;;;;;;;;;;;17.60;44.60;;;;;;4934693;28;20303;-62
2022/04/17 12:51:03;;;;;;;2.40;2.20;;;17.50;44.30;;;;;;4933443;28;19929;-65
2022/04/17 12:53:36;;;;;;;6.65;2.67;;;17.40;44.20;;;;;;4938863;28;20145;-64
2022/04/17 12:56:04;;;;;;;3.10;2.10;;;17.50;46.10;;;;;;4936694;28;20146;-64
2022/04/17 12:58:49;;;;;;;2.67;2.08;;;17.40;43.90;;;;;;4933055;28;20821;-64
2022/04/17 13:01:20;;;;;;;2.38;2.00;;;17.50;44.50;;;;;;4937205;28;20057;-65
2022/04/17 13:04:20;;;;;;;5.22;2.10;;;17.50;42.80;;;;;;4934278;28;20042;-64
2022/04/17 13:07:10;;;;;;;6.03;2.15;;;17.50;43.40;;;;;;4933638;28;20042;-65
2022/04/17 13:09:37;;;;;;;1.92;1.60;;;17.60;43.00;;;;;;4933604;28;20887;-64
2022/04/17 13:12:04;;;;;;;3.05;1.35;;;17.70;40.60;;;;;;4935906;28;20042;-64
2022/04/17 13:14:31;;;;;;;4.45;2.50;;;18.00;42.90;;;;;;4936997;28;20137;-63